Time;durP1;ratioP1;P1;durP2;ratioP2;P2;SDS_P1;SDS_P2;PMS_P1;PMS_P2;Temp;Humidity;BMP_temperature;BMP_pressure;BME280_temperature;BME280_humidity;BME280_pressure;Samples;Min_cycle;Max_cycle;Signal;HPM_P1;HPM_P2
2023/03/18 00:00:21;;;;;;;13.10;7.10;;;21.10;55.10;;;;;;5050971;28;20108;-74
2023/03/18 00:02:47;;;;;;;16.17;7.10;;;21.20;55.00;;;;;;5050943;28;20103;-74
2023/03/18 00:05:14;;;;;;;12.38;5.82;;;21.20;55.10;;;;;;5050798;28;20056;-74
2023/03/18 00:07:41;;;;;;;12.68;6.10;;;21.10;55.00;;;;;;5050930;28;20071;-74
2023/03/18 00:10:09;;;;;;;12.05;6.40;;;21.10;54.90;;;;;;5050736;28;20045;-74
2023/03/18 00:12:37;;;;;;;13.50;6.53;;;21.10;54.80;;;;;;5050668;28;20040;-75
2023/03/18 00:15:06;;;;;;;17.23;7.18;;;21.30;54.70;;;;;;5050763;28;20450;-74
2023/03/18 00:17:32;;;;;;;16.35;7.13;;;21.30;54.70;;;;;;5050761;28;20029;-74
2023/03/18 00:20:04;;;;;;;13.32;7.00;;;21.20;54.40;;;;;;5033145;28;20044;-74
2023/03/18 00:22:36;;;;;;;13.07;7.35;;;21.30;54.40;;;;;;5050995;28;20064;-74
2023/03/18 00:25:03;;;;;;;11.70;7.00;;;21.20;54.30;;;;;;5050958;28;20037;-74
2023/03/18 00:27:30;;;;;;;11.80;6.40;;;21.30;54.40;;;;;;5050861;28;20123;-74
2023/03/18 00:29:57;;;;;;;13.70;6.80;;;21.40;54.30;;;;;;5034933;28;20032;-74
2023/03/18 00:32:26;;;;;;;14.50;6.63;;;21.30;54.20;;;;;;5056407;28;20041;-74
2023/03/18 00:34:55;;;;;;;12.73;6.70;;;21.30;54.20;;;;;;5056420;28;20036;-74
2023/03/18 00:37:32;;;;;;;19.25;7.68;;;21.20;54.10;;;;;;5056903;28;20114;-74
2023/03/18 00:40:05;;;;;;;15.75;6.38;;;21.10;54.20;;;;;;5056751;28;20068;-74
2023/03/18 00:42:41;;;;;;;9.98;5.78;;;21.10;54.20;;;;;;5056612;28;20032;-74
2023/03/18 00:45:12;;;;;;;13.18;7.07;;;21.10;54.20;;;;;;5074287;28;20039;-74
2023/03/18 00:47:38;;;;;;;17.20;7.13;;;21.00;54.10;;;;;;5074136;28;20123;-75
2023/03/18 00:50:09;;;;;;;16.95;7.53;;;21.10;54.20;;;;;;5015209;28;20124;-74
2023/03/18 00:52:36;;;;;;;13.25;6.78;;;21.00;54.10;;;;;;5031854;28;20049;-75
2023/03/18 00:55:03;;;;;;;13.13;5.88;;;21.00;54.10;;;;;;5031525;28;20140;-74
2023/03/18 00:57:29;;;;;;;13.77;6.38;;;21.00;54.00;;;;;;5015477;28;20476;-74
2023/03/18 00:59:58;;;;;;;13.07;6.40;;;20.90;54.00;;;;;;5031611;28;20057;-74
2023/03/18 01:02:26;;;;;;;10.15;5.90;;;21.00;54.00;;;;;;5015185;28;20033;-74
2023/03/18 01:04:52;;;;;;;12.02;7.22;;;21.00;53.90;;;;;;5015093;28;20041;-74
2023/03/18 01:07:18;;;;;;;10.52;5.65;;;21.10;53.90;;;;;;5014969;28;20045;-74
2023/03/18 01:09:44;;;;;;;11.52;5.82;;;21.10;53.80;;;;;;5011349;28;20111;-74
2023/03/18 01:12:11;;;;;;;12.13;6.00;;;21.00;53.60;;;;;;5013625;28;20058;-74
2023/03/18 01:14:39;;;;;;;15.32;6.95;;;21.20;53.60;;;;;;5031226;28;20068;-74
2023/03/18 01:17:06;;;;;;;14.10;5.80;;;21.20;53.50;;;;;;5031396;28;20069;-74
2023/03/18 01:19:33;;;;;;;13.18;5.88;;;21.10;53.40;;;;;;5031283;28;20045;-74
2023/03/18 01:21:59;;;;;;;14.43;6.15;;;21.10;53.40;;;;;;5066555;28;20055;-74
2023/03/18 01:24:26;;;;;;;16.58;6.78;;;21.20;53.30;;;;;;5054661;28;20428;-74
2023/03/18 01:26:52;;;;;;;15.05;6.57;;;21.10;53.30;;;;;;5054206;28;20033;-73
2023/03/18 01:29:21;;;;;;;12.25;5.72;;;21.20;53.20;;;;;;5054435;28;20047;-74
2023/03/18 01:31:47;;;;;;;13.07;7.00;;;21.10;53.20;;;;;;5054332;28;20514;-74
2023/03/18 01:34:15;;;;;;;12.80;6.63;;;21.10;53.20;;;;;;5037742;28;20040;-74
2023/03/18 01:36:49;;;;;;;10.43;5.53;;;21.10;53.30;;;;;;5070784;28;20074;-75
2023/03/18 01:39:16;;;;;;;12.43;6.35;;;21.00;53.20;;;;;;5054330;28;20032;-74
2023/03/18 01:41:43;;;;;;;9.43;5.57;;;21.00;53.20;;;;;;5030531;28;20073;-74
2023/03/18 01:44:19;;;;;;;17.00;5.63;;;20.90;53.30;;;;;;5014608;28;20046;-74
2023/03/18 01:46:51;;;;;;;13.80;5.65;;;20.90;53.30;;;;;;5030301;28;20045;-74
2023/03/18 01:49:33;;;;;;;9.75;5.68;;;21.00;53.20;;;;;;5030003;28;20049;-74
2023/03/18 01:52:15;;;;;;;16.98;7.22;;;21.00;53.20;;;;;;5029116;28;20052;-73
2023/03/18 01:54:52;;;;;;;12.77;6.13;;;20.80;53.00;;;;;;5014081;28;20029;-74
2023/03/18 01:57:20;;;;;;;9.23;5.85;;;21.00;53.10;;;;;;5013664;28;20082;-74
2023/03/18 01:59:48;;;;;;;10.93;6.15;;;20.90;53.00;;;;;;4955235;28;20139;-74
2023/03/18 02:02:16;;;;;;;11.65;5.75;;;21.00;52.90;;;;;;4955571;28;20043;-74
2023/03/18 02:04:52;;;;;;;11.40;6.43;;;20.90;52.90;;;;;;4955600;28;20644;-74
2023/03/18 02:07:27;;;;;;;10.98;5.47;;;20.90;52.80;;;;;;4955216;28;20431;-74
2023/03/18 02:09:57;;;;;;;10.43;5.95;;;20.90;52.80;;;;;;4955510;28;20098;-74
2023/03/18 02:12:30;;;;;;;10.20;5.63;;;21.00;52.70;;;;;;4962544;28;20062;-74
2023/03/18 02:15:02;;;;;;;14.73;5.78;;;21.00;52.60;;;;;;4974790;28;20084;-74
2023/03/18 02:17:33;;;;;;;16.25;6.38;;;21.00;52.50;;;;;;4997937;28;20061;-74
2023/03/18 02:20:09;;;;;;;12.38;5.53;;;21.10;52.60;;;;;;4994199;28;20427;-74
2023/03/18 02:22:40;;;;;;;12.13;6.13;;;21.00;52.50;;;;;;4994074;28;20096;-74
2023/03/18 02:25:27;;;;;;;11.23;6.07;;;21.10;52.40;;;;;;4993934;28;20038;-75
2023/03/18 02:28:11;;;;;;;13.15;6.65;;;21.10;52.30;;;;;;4994008;28;20046;-74
2023/03/18 02:30:47;;;;;;;11.80;5.95;;;21.10;52.30;;;;;;4993780;28;20053;-74
2023/03/18 02:33:15;;;;;;;11.93;5.32;;;21.10;52.30;;;;;;4994089;28;20117;-74
2023/03/18 02:35:45;;;;;;;11.45;4.43;;;21.00;52.30;;;;;;5009901;28;20042;-74
2023/03/18 02:38:11;;;;;;;15.77;5.55;;;21.00;52.30;;;;;;5047965;28;20170;-74
2023/03/18 02:40:39;;;;;;;8.55;5.18;;;20.90;52.40;;;;;;5066451;28;20042;-74
2023/03/18 02:43:24;;;;;;;7.93;5.28;;;20.90;52.50;;;;;;5058639;28;20032;-74
2023/03/18 02:46:19;;;;;;;12.02;5.32;;;20.80;52.40;;;;;;5075354;28;20043;-74
2023/03/18 02:48:47;;;;;;;10.70;5.20;;;20.80;52.50;;;;;;5057824;28;20043;-74
2023/03/18 02:51:15;;;;;;;11.07;5.32;;;20.90;52.50;;;;;;5074223;28;20036;-74
2023/03/18 02:53:42;;;;;;;9.32;4.95;;;20.90;52.50;;;;;;5073640;28;20475;-74
2023/03/18 02:56:10;;;;;;;11.00;5.72;;;20.90;52.50;;;;;;5074046;28;20042;-74
2023/03/18 02:58:37;;;;;;;9.07;4.03;;;20.80;52.40;;;;;;5073994;28;20032;-74
2023/03/18 03:01:06;;;;;;;9.15;5.13;;;20.80;52.40;;;;;;5073832;28;20031;-74
2023/03/18 03:03:34;;;;;;;8.00;5.10;;;20.70;52.40;;;;;;5057544;28;20035;-74
2023/03/18 03:06:00;;;;;;;8.48;4.53;;;20.80;52.40;;;;;;5091551;28;20036;-74
2023/03/18 03:08:27;;;;;;;10.77;5.13;;;20.70;52.40;;;;;;5048967;28;20033;-75
2023/03/18 03:10:53;;;;;;;13.60;6.20;;;20.70;52.30;;;;;;5056499;28;20132;-74
2023/03/18 03:13:21;;;;;;;10.30;4.95;;;20.70;52.30;;;;;;5052198;28;20072;-74
2023/03/18 03:15:48;;;;;;;10.32;4.65;;;20.80;52.30;;;;;;5068790;28;20048;-74
2023/03/18 03:18:15;;;;;;;11.63;5.22;;;20.70;52.30;;;;;;5068923;28;20041;-74
2023/03/18 03:20:43;;;;;;;9.25;5.00;;;20.80;52.30;;;;;;5069080;28;20404;-74
2023/03/18 03:23:12;;;;;;;10.63;5.57;;;20.60;52.20;;;;;;5068870;28;20037;-74
2023/03/18 03:25:39;;;;;;;14.60;5.50;;;20.70;52.30;;;;;;5068962;28;20496;-74
2023/03/18 03:28:06;;;;;;;8.45;5.10;;;20.70;52.20;;;;;;5068550;28;20114;-74
2023/03/18 03:30:32;;;;;;;12.27;5.50;;;20.70;52.20;;;;;;5052281;28;20070;-74
2023/03/18 03:33:00;;;;;;;13.00;6.38;;;20.70;52.00;;;;;;5068831;28;20074;-74
2023/03/18 03:35:26;;;;;;;10.73;5.90;;;20.80;52.00;;;;;;5068693;28;20424;-74
2023/03/18 03:37:52;;;;;;;8.90;4.82;;;20.80;52.00;;;;;;5051621;28;20444;-75
2023/03/18 03:40:19;;;;;;;10.60;5.50;;;20.80;51.90;;;;;;5087265;28;20495;-74
2023/03/18 03:42:46;;;;;;;10.63;5.03;;;20.90;52.00;;;;;;5088084;28;20084;-74
2023/03/18 03:45:14;;;;;;;9.25;4.90;;;20.90;51.90;;;;;;5091417;28;20055;-74
2023/03/18 03:47:42;;;;;;;7.22;4.65;;;21.00;51.80;;;;;;5090105;28;20424;-75
2023/03/18 03:50:10;;;;;;;12.23;5.43;;;20.90;51.70;;;;;;5090246;28;20111;-74
2023/03/18 03:52:38;;;;;;;10.48;5.10;;;21.10;51.60;;;;;;5048576;28;20049;-74
2023/03/18 03:55:09;;;;;;;8.30;5.43;;;21.00;51.50;;;;;;5015286;28;20586;-74
2023/03/18 03:57:37;;;;;;;9.88;5.32;;;21.10;51.50;;;;;;5048492;28;20111;-74
2023/03/18 04:00:13;;;;;;;8.35;4.95;;;21.10;51.40;;;;;;5048451;28;20032;-74
2023/03/18 04:02:47;;;;;;;8.88;5.15;;;21.10;51.40;;;;;;5030737;28;20397;-75
2023/03/18 04:05:18;;;;;;;8.77;5.25;;;21.10;51.30;;;;;;5032067;28;20524;-74
2023/03/18 04:07:45;;;;;;;11.73;4.45;;;21.30;51.30;;;;;;5052521;28;20037;-74
2023/03/18 04:10:15;;;;;;;7.30;4.93;;;21.30;51.20;;;;;;5035545;28;20060;-74
2023/03/18 04:12:42;;;;;;;11.20;5.18;;;21.20;51.10;;;;;;5035884;28;20476;-74
2023/03/18 04:15:08;;;;;;;9.02;4.65;;;21.20;51.10;;;;;;5052443;28;20040;-75
2023/03/18 04:17:35;;;;;;;11.52;5.00;;;21.40;51.20;;;;;;5052145;28;20037;-74
2023/03/18 04:20:03;;;;;;;9.45;3.83;;;21.20;51.00;;;;;;5035747;28;20064;-74
2023/03/18 04:22:32;;;;;;;10.35;4.45;;;21.30;51.00;;;;;;5012380;28;20530;-74
2023/03/18 04:25:03;;;;;;;6.35;3.55;;;21.40;50.90;;;;;;5012723;28;20045;-74
2023/03/18 04:27:29;;;;;;;6.07;3.85;;;21.30;50.80;;;;;;4996269;28;20069;-74
2023/03/18 04:29:58;;;;;;;8.35;3.45;;;21.40;50.80;;;;;;5034466;28;20087;-74
2023/03/18 04:32:32;;;;;;;6.50;3.75;;;21.40;50.80;;;;;;5055463;28;20058;-74
2023/03/18 04:34:59;;;;;;;6.97;4.20;;;21.40;50.80;;;;;;5072180;28;20045;-74
2023/03/18 04:37:25;;;;;;;5.95;3.42;;;21.30;50.70;;;;;;5055261;28;20075;-74
2023/03/18 04:39:55;;;;;;;6.60;3.20;;;21.40;50.70;;;;;;5039469;28;20044;-75
2023/03/18 04:42:21;;;;;;;7.53;3.53;;;21.70;50.90;;;;;;5055261;28;20416;-74
2023/03/18 04:44:47;;;;;;;6.25;3.67;;;21.70;50.50;;;;;;5055319;28;20091;-74
2023/03/18 04:47:14;;;;;;;4.47;3.10;;;21.80;50.20;;;;;;5017849;28;20043;-74
2023/03/18 04:49:40;;;;;;;6.30;4.20;;;21.80;49.90;;;;;;5035478;28;20172;-74
2023/03/18 04:52:07;;;;;;;6.80;3.55;;;21.90;50.10;;;;;;5018576;28;20056;-74
2023/03/18 04:54:33;;;;;;;5.53;3.15;;;21.90;50.20;;;;;;5072652;28;20048;-74
2023/03/18 04:57:04;;;;;;;5.40;3.47;;;22.00;50.30;;;;;;5056177;28;20041;-76
2023/03/18 04:59:33;;;;;;;4.70;3.13;;;21.80;50.50;;;;;;5072835;28;20465;-76
2023/03/18 05:02:03;;;;;;;6.65;3.50;;;22.00;52.50;;;;;;5072977;28;20040;-80
2023/03/18 05:04:30;;;;;;;6.72;3.10;;;22.30;52.90;;;;;;5073044;28;20037;-78
2023/03/18 05:06:57;;;;;;;5.80;3.25;;;22.80;53.00;;;;;;5089686;28;20032;-78
2023/03/18 05:09:30;;;;;;;6.45;3.38;;;22.90;51.40;;;;;;5073045;28;20037;-83
2023/03/18 05:11:57;;;;;;;11.00;3.50;;;22.90;48.30;;;;;;5072514;28;20055;-82
2023/03/18 05:14:31;;;;;;;5.15;3.88;;;22.80;46.60;;;;;;5072788;28;20080;-81
2023/03/18 05:16:59;;;;;;;9.57;4.10;;;22.90;44.80;;;;;;5054939;28;20502;-81
2023/03/18 05:19:27;;;;;;;7.45;4.45;;;22.70;44.70;;;;;;5072438;28;20457;-81
2023/03/18 05:22:02;;;;;;;8.05;4.43;;;22.60;45.00;;;;;;5057313;28;20039;-80
2023/03/18 05:24:29;;;;;;;8.73;5.03;;;22.30;45.50;;;;;;5072340;28;20040;-77
2023/03/18 05:26:55;;;;;;;8.63;4.50;;;22.20;46.10;;;;;;5089118;28;20037;-80
2023/03/18 05:29:25;;;;;;;7.03;4.00;;;22.10;46.70;;;;;;5072443;28;20059;-79
2023/03/18 05:32:15;;;;;;;7.28;3.72;;;22.10;47.30;;;;;;5072313;28;20574;-80
2023/03/18 05:34:42;;;;;;;7.03;4.03;;;22.00;47.70;;;;;;5072067;28;20119;-80
2023/03/18 05:37:12;;;;;;;10.43;4.03;;;22.00;48.10;;;;;;5030455;28;20048;-77
2023/03/18 05:39:44;;;;;;;13.13;5.13;;;21.90;48.30;;;;;;5032463;28;20041;-80
2023/03/18 05:42:13;;;;;;;7.88;4.32;;;22.00;48.80;;;;;;5034596;28;20057;-80
2023/03/18 05:44:39;;;;;;;8.43;3.78;;;22.00;49.40;;;;;;5034437;28;20041;-80
2023/03/18 05:47:08;;;;;;;12.30;4.70;;;22.00;49.80;;;;;;5034036;28;20053;-80
2023/03/18 05:49:47;;;;;;;7.53;4.53;;;22.10;49.50;;;;;;5033907;28;20115;-81
2023/03/18 05:52:20;;;;;;;10.68;4.60;;;22.10;48.40;;;;;;5003123;28;20049;-79
2023/03/18 05:54:48;;;;;;;8.18;4.93;;;22.10;45.50;;;;;;5034190;28;20457;-82
2023/03/18 05:57:20;;;;;;;9.32;5.32;;;22.10;42.10;;;;;;5034623;28;20041;-80
2023/03/18 05:59:46;;;;;;;9.07;5.45;;;22.00;42.00;;;;;;5018360;28;20044;-82
2023/03/18 06:02:12;;;;;;;8.73;4.90;;;22.00;42.70;;;;;;5034619;28;20049;-81
2023/03/18 06:04:39;;;;;;;7.05;4.30;;;22.10;42.40;;;;;;5034544;28;20036;-83
2023/03/18 06:07:05;;;;;;;6.63;4.63;;;22.00;42.40;;;;;;5036857;28;20109;-84
2023/03/18 06:09:34;;;;;;;6.82;4.15;;;22.10;44.10;;;;;;5092233;28;20039;-85
2023/03/18 06:12:02;;;;;;;8.38;4.32;;;22.00;42.80;;;;;;5091993;28;20060;-81
2023/03/18 06:14:28;;;;;;;7.47;4.60;;;22.00;42.30;;;;;;5091927;28;20040;-81
2023/03/18 06:16:58;;;;;;;7.53;4.18;;;22.10;46.70;;;;;;5091816;28;20119;-81
2023/03/18 06:19:25;;;;;;;9.38;5.47;;;22.10;44.40;;;;;;5092160;28;20036;-82
2023/03/18 06:21:51;;;;;;;8.48;4.85;;;22.10;46.20;;;;;;5091894;28;20119;-78
2023/03/18 06:24:17;;;;;;;7.88;5.68;;;22.20;45.90;;;;;;5091786;28;20032;-79
2023/03/18 06:26:43;;;;;;;8.13;5.65;;;22.20;45.30;;;;;;5092914;28;20028;-82
2023/03/18 06:29:10;;;;;;;9.52;6.00;;;22.20;46.30;;;;;;5090776;28;20028;-80
2023/03/18 06:31:37;;;;;;;11.18;6.90;;;22.20;46.10;;;;;;5091559;28;20050;-81
2023/03/18 06:34:06;;;;;;;9.13;5.80;;;22.10;44.10;;;;;;5091449;28;20035;-77
2023/03/18 06:36:34;;;;;;;10.80;6.00;;;22.10;43.20;;;;;;5091476;28;20028;-78
2023/03/18 06:39:03;;;;;;;7.70;5.70;;;22.10;42.50;;;;;;5089153;28;20116;-81
2023/03/18 06:41:30;;;;;;;9.13;5.78;;;22.10;42.90;;;;;;5071302;28;20028;-79
2023/03/18 06:44:06;;;;;;;7.05;4.85;;;22.30;48.60;;;;;;5070850;28;20419;-78
2023/03/18 06:46:32;;;;;;;11.32;5.25;;;22.50;56.50;;;;;;5070992;28;20032;-78
2023/03/18 06:49:00;;;;;;;10.60;5.03;;;22.50;55.40;;;;;;5054618;28;20047;-80
2023/03/18 06:51:32;;;;;;;8.90;5.40;;;22.60;55.90;;;;;;5053866;28;20044;-80
2023/03/18 06:53:58;;;;;;;9.07;4.93;;;22.50;55.70;;;;;;5072339;28;20035;-82
2023/03/18 06:56:27;;;;;;;9.05;5.60;;;22.60;56.40;;;;;;5070945;28;20087;-76
2023/03/18 06:59:03;;;;;;;8.70;4.65;;;22.30;56.20;;;;;;5075226;28;20043;-81
2023/03/18 07:01:31;;;;;;;8.40;4.47;;;22.50;56.40;;;;;;5090869;28;20094;-75
2023/03/18 07:03:59;;;;;;;9.13;5.13;;;22.50;56.90;;;;;;5073977;28;20028;-80
2023/03/18 07:06:28;;;;;;;10.10;5.25;;;22.80;55.70;;;;;;5090626;28;20071;-76
2023/03/18 07:08:55;;;;;;;7.20;5.32;;;22.80;54.00;;;;;;5090665;28;20035;-81
2023/03/18 07:11:22;;;;;;;6.65;4.00;;;22.90;53.30;;;;;;5080217;28;20052;-82
2023/03/18 07:13:48;;;;;;;10.27;4.85;;;23.00;53.10;;;;;;5053689;28;20033;-79
2023/03/18 07:16:22;;;;;;;7.22;4.22;;;23.00;53.30;;;;;;5053593;28;20123;-80
2023/03/18 07:18:48;;;;;;;11.88;6.72;;;23.00;53.50;;;;;;5053446;28;20119;-80
2023/03/18 07:21:15;;;;;;;8.00;5.10;;;23.00;53.30;;;;;;5037067;28;20098;-79
2023/03/18 07:23:41;;;;;;;12.02;7.80;;;23.00;53.30;;;;;;5053533;28;20067;-79
2023/03/18 07:26:08;;;;;;;14.10;6.03;;;23.10;55.30;;;;;;5053500;28;20040;-78
2023/03/18 07:28:34;;;;;;;14.68;7.85;;;23.00;55.60;;;;;;5071331;28;20040;-78
2023/03/18 07:31:01;;;;;;;13.13;6.57;;;23.00;55.60;;;;;;5025543;28;20057;-77
2023/03/18 07:33:27;;;;;;;9.52;6.30;;;23.00;54.00;;;;;;5012476;28;20498;-79
2023/03/18 07:35:54;;;;;;;15.70;7.82;;;23.10;54.30;;;;;;5008823;28;20054;-77
2023/03/18 07:38:20;;;;;;;16.45;6.90;;;23.00;54.00;;;;;;5009199;28;20069;-81
2023/03/18 07:40:47;;;;;;;12.32;6.05;;;23.00;55.30;;;;;;5009043;28;20050;-80
2023/03/18 07:43:13;;;;;;;15.95;8.70;;;23.10;54.50;;;;;;5009171;28;20084;-79
2023/03/18 07:45:39;;;;;;;12.20;7.13;;;23.10;54.30;;;;;;5008915;28;20038;-78
2023/03/18 07:48:05;;;;;;;13.73;8.38;;;23.10;54.30;;;;;;5008927;28;20044;-79
2023/03/18 07:50:34;;;;;;;14.32;8.68;;;23.00;53.90;;;;;;5009013;28;20117;-79
2023/03/18 07:53:00;;;;;;;15.02;9.32;;;23.00;53.90;;;;;;5009165;28;20113;-79
2023/03/18 07:55:26;;;;;;;12.43;8.68;;;23.00;54.40;;;;;;4992364;28;20469;-80
2023/03/18 07:57:52;;;;;;;15.32;8.43;;;22.90;54.90;;;;;;5008822;28;20038;-80
2023/03/18 08:00:19;;;;;;;17.50;9.55;;;22.80;55.40;;;;;;5008891;28;20490;-78
2023/03/18 08:02:45;;;;;;;15.45;10.32;;;22.70;55.70;;;;;;5040431;28;20045;-78
2023/03/18 08:05:12;;;;;;;14.90;9.32;;;22.60;56.20;;;;;;5048419;28;20045;-72
2023/03/18 08:07:38;;;;;;;14.77;9.93;;;22.60;56.10;;;;;;5066357;28;20041;-76
2023/03/18 08:10:05;;;;;;;15.00;9.50;;;22.40;57.00;;;;;;5070862;28;20025;-80
2023/03/18 08:12:31;;;;;;;14.23;8.82;;;22.40;57.60;;;;;;5071059;28;20108;-79
2023/03/18 08:14:58;;;;;;;13.68;9.40;;;22.50;57.70;;;;;;5070813;28;20032;-76
2023/03/18 08:17:25;;;;;;;17.00;9.85;;;22.40;57.70;;;;;;5070726;28;20059;-75
2023/03/18 08:19:51;;;;;;;13.23;9.60;;;22.40;58.30;;;;;;5070467;28;20119;-77
2023/03/18 08:22:17;;;;;;;15.88;10.25;;;22.40;58.30;;;;;;5070810;28;20438;-79
2023/03/18 08:24:44;;;;;;;17.08;10.30;;;22.20;58.60;;;;;;5036351;28;20028;-79
2023/03/18 08:27:11;;;;;;;16.40;9.55;;;22.30;58.90;;;;;;5070844;28;20024;-77
2023/03/18 08:29:37;;;;;;;20.33;10.73;;;22.40;58.90;;;;;;5070463;28;20033;-79
2023/03/18 08:32:03;;;;;;;16.13;9.82;;;22.40;58.90;;;;;;5036482;28;20401;-74
2023/03/18 08:34:29;;;;;;;13.00;8.18;;;22.20;58.90;;;;;;5050286;28;20122;-76
2023/03/18 08:36:55;;;;;;;19.60;9.88;;;22.30;59.10;;;;;;5050569;28;20060;-78
2023/03/18 08:39:21;;;;;;;17.20;9.80;;;22.40;59.20;;;;;;5050505;28;20037;-77
2023/03/18 08:41:48;;;;;;;17.70;10.40;;;22.30;59.20;;;;;;5050476;28;20033;-79
2023/03/18 08:44:14;;;;;;;18.67;9.95;;;22.40;58.90;;;;;;5032727;28;20104;-77
2023/03/18 08:46:40;;;;;;;16.90;10.02;;;22.50;58.80;;;;;;5050447;28;20044;-75
2023/03/18 08:49:06;;;;;;;14.38;8.70;;;22.40;58.70;;;;;;5050192;28;20036;-72
2023/03/18 08:51:33;;;;;;;18.20;7.85;;;22.50;58.70;;;;;;5015777;28;20048;-77
2023/03/18 08:53:59;;;;;;;22.98;11.10;;;22.60;56.70;;;;;;5054294;28;20121;-75
2023/03/18 08:56:26;;;;;;;17.13;10.18;;;22.70;54.80;;;;;;5054090;28;20041;-76
2023/03/18 08:58:52;;;;;;;16.02;10.38;;;22.80;52.70;;;;;;5036261;28;20473;-75
2023/03/18 09:01:20;;;;;;;15.98;9.85;;;22.70;52.20;;;;;;5053959;28;20041;-76
2023/03/18 09:03:47;;;;;;;18.88;10.60;;;22.70;53.00;;;;;;5036271;28;20105;-75
2023/03/18 09:06:14;;;;;;;15.40;10.50;;;22.70;55.10;;;;;;5054078;28;20032;-77
2023/03/18 09:08:41;;;;;;;20.30;12.65;;;23.00;55.00;;;;;;5053781;28;20039;-77
2023/03/18 09:11:08;;;;;;;22.30;13.52;;;22.80;55.00;;;;;;5053933;28;20056;-77
2023/03/18 09:13:35;;;;;;;25.90;14.07;;;22.90;58.10;;;;;;5054026;28;20381;-77
2023/03/18 09:16:01;;;;;;;23.25;12.70;;;22.90;59.20;;;;;;5053619;28;20048;-77
2023/03/18 09:18:28;;;;;;;22.27;12.48;;;22.90;59.10;;;;;;5053681;28;20029;-77
2023/03/18 09:20:54;;;;;;;21.33;13.65;;;23.00;58.60;;;;;;5053842;28;20037;-76
2023/03/18 09:23:21;;;;;;;27.42;12.80;;;23.10;59.10;;;;;;5053710;28;20033;-75
2023/03/18 09:25:49;;;;;;;20.15;12.15;;;23.00;60.00;;;;;;5053660;28;20072;-76
2023/03/18 09:28:15;;;;;;;21.80;12.60;;;23.00;58.00;;;;;;5053422;28;20043;-75
2023/03/18 09:30:41;;;;;;;19.50;12.90;;;22.90;58.10;;;;;;5056161;28;20039;-78
2023/03/18 09:33:10;;;;;;;24.40;15.32;;;22.90;57.60;;;;;;5035773;28;20074;-78
2023/03/18 09:35:36;;;;;;;19.63;12.18;;;23.00;48.80;;;;;;5053654;28;20055;-78
2023/03/18 09:38:03;;;;;;;19.83;11.90;;;23.10;50.70;;;;;;5053522;28;20082;-77
2023/03/18 09:40:32;;;;;;;25.90;13.63;;;23.30;71.10;;;;;;5035715;28;20036;-77
2023/03/18 09:43:14;;;;;;;22.05;12.50;;;23.40;71.30;;;;;;5053387;28;20351;-77
2023/03/18 09:45:51;;;;;;;19.52;11.80;;;23.40;69.10;;;;;;5053739;28;20076;-78
2023/03/18 09:48:36;;;;;;;16.80;11.18;;;23.40;65.50;;;;;;5052922;28;20039;-77
2023/03/18 09:51:15;;;;;;;20.10;11.40;;;23.40;62.90;;;;;;5053183;28;20365;-77
2023/03/18 09:53:48;;;;;;;19.52;11.70;;;23.40;61.90;;;;;;5035230;28;20065;-81
2023/03/18 09:56:23;;;;;;;18.45;10.85;;;23.40;60.80;;;;;;5053081;28;20055;-79
2023/03/18 09:59:02;;;;;;;20.02;11.68;;;23.20;59.40;;;;;;5052802;28;20048;-79
2023/03/18 10:01:31;;;;;;;20.58;12.82;;;23.30;59.80;;;;;;5053095;28;20476;-81
2023/03/18 10:04:06;;;;;;;16.17;11.23;;;23.30;59.00;;;;;;5051678;28;20047;-79
2023/03/18 10:06:34;;;;;;;17.48;11.70;;;23.30;49.30;;;;;;5053105;28;20072;-74
2023/03/18 10:09:39;;;;;;;15.02;11.20;;;23.50;50.40;;;;;;5052802;28;20037;-78
2023/03/18 10:12:30;;;;;;;18.98;11.20;;;23.70;50.20;;;;;;4986580;28;20051;-80
2023/03/18 10:15:25;;;;;;;21.73;12.05;;;24.00;53.70;;;;;;4991021;28;20055;-80
2023/03/18 10:18:10;;;;;;;18.77;11.98;;;24.10;57.10;;;;;;4991498;28;20069;-80
2023/03/18 10:20:54;;;;;;;20.63;12.50;;;24.20;56.70;;;;;;4990993;28;20167;-82
2023/03/18 10:23:21;;;;;;;21.08;13.02;;;24.30;56.50;;;;;;4991117;28;20077;-80
2023/03/18 10:25:58;;;;;;;22.52;12.68;;;24.10;56.50;;;;;;4990996;28;20039;-82
2023/03/18 10:29:02;;;;;;;18.20;11.95;;;24.10;56.70;;;;;;4974617;28;20027;-81
2023/03/18 10:31:39;;;;;;;20.55;13.13;;;24.10;56.60;;;;;;4971944;28;20134;-77
2023/03/18 10:34:12;;;;;;;16.98;11.75;;;24.10;57.00;;;;;;4971264;28;20050;-79
2023/03/18 10:36:49;;;;;;;22.42;11.98;;;23.90;57.20;;;;;;4971576;28;20050;-82
2023/03/18 10:39:25;;;;;;;15.77;11.50;;;23.70;59.10;;;;;;4971100;28;20051;-79
2023/03/18 10:41:54;;;;;;;17.50;13.20;;;24.00;65.90;;;;;;4971332;28;20043;-81
2023/03/18 10:44:32;;;;;;;25.83;14.52;;;24.90;63.80;;;;;;4971420;28;20043;-78
2023/03/18 10:47:26;;;;;;;22.25;14.32;;;25.20;54.90;;;;;;5039822;28;20556;-81
2023/03/18 10:50:04;;;;;;;20.38;13.57;;;25.40;46.70;;;;;;5049570;28;20091;-78
2023/03/18 10:53:07;;;;;;;21.42;12.80;;;25.10;43.30;;;;;;5049902;28;20037;-79
2023/03/18 10:55:42;;;;;;;15.13;11.10;;;25.00;40.50;;;;;;4990184;28;20108;-79
2023/03/18 10:58:15;;;;;;;20.58;12.10;;;25.00;43.00;;;;;;4990374;28;20038;-77
2023/03/18 11:00:43;;;;;;;16.85;10.95;;;25.00;47.80;;;;;;4990019;28;20038;-78
2023/03/18 11:03:22;;;;;;;20.65;12.05;;;25.00;53.40;;;;;;4990528;28;20034;-81
2023/03/18 11:05:50;;;;;;;16.50;11.73;;;25.20;58.90;;;;;;4990353;28;20049;-77
2023/03/18 11:08:33;;;;;;;23.73;13.13;;;25.40;61.70;;;;;;4999797;28;20034;-81
2023/03/18 11:11:13;;;;;;;19.77;12.70;;;25.60;63.20;;;;;;4992907;28;20115;-79
2023/03/18 11:13:49;;;;;;;21.10;13.15;;;25.50;56.90;;;;;;5009859;28;20042;-80
2023/03/18 11:16:37;;;;;;;20.70;13.52;;;25.30;55.80;;;;;;5009319;28;20121;-81
2023/03/18 11:19:20;;;;;;;24.65;13.02;;;25.00;55.60;;;;;;4993029;28;20480;-80
2023/03/18 11:21:47;;;;;;;19.42;13.15;;;24.90;55.80;;;;;;5009960;28;20105;-80
2023/03/18 11:24:37;;;;;;;23.73;13.43;;;24.80;56.10;;;;;;5009776;28;20037;-82
2023/03/18 11:27:25;;;;;;;20.63;12.38;;;24.70;56.60;;;;;;5009237;28;20061;-79
2023/03/18 11:30:01;;;;;;;18.50;11.70;;;24.70;56.70;;;;;;5008922;28;20046;-78
2023/03/18 11:32:29;;;;;;;19.73;13.10;;;24.50;57.00;;;;;;5035721;28;20032;-77
2023/03/18 11:34:59;;;;;;;18.08;11.20;;;24.50;57.20;;;;;;5071273;28;20136;-77
2023/03/18 11:37:31;;;;;;;22.65;13.50;;;24.50;57.60;;;;;;5071404;28;20480;-78
2023/03/18 11:40:13;;;;;;;19.17;11.85;;;24.30;57.50;;;;;;5074019;28;20043;-79
2023/03/18 11:42:40;;;;;;;20.65;12.63;;;24.40;57.70;;;;;;5091542;28;20376;-79
2023/03/18 11:45:35;;;;;;;17.63;10.93;;;24.40;57.90;;;;;;5091463;28;20531;-78
2023/03/18 11:48:02;;;;;;;17.40;11.82;;;24.40;58.20;;;;;;5091311;28;20107;-77
2023/03/18 11:50:41;;;;;;;18.80;12.88;;;24.30;57.90;;;;;;5091374;28;20036;-77
2023/03/18 11:53:29;;;;;;;18.67;12.05;;;24.30;58.30;;;;;;5091185;28;20059;-77
2023/03/18 11:56:13;;;;;;;18.52;11.52;;;24.30;58.70;;;;;;5089523;28;20498;-76
2023/03/18 11:58:47;;;;;;;18.90;12.32;;;24.30;58.90;;;;;;5090756;28;20028;-78
2023/03/18 12:01:16;;;;;;;21.15;13.45;;;24.20;59.30;;;;;;5089745;28;20458;-77
2023/03/18 12:04:04;;;;;;;21.92;12.95;;;24.20;59.70;;;;;;5091213;28;20058;-76
2023/03/18 12:06:37;;;;;;;19.50;12.02;;;24.30;60.10;;;;;;5090930;28;20102;-77
2023/03/18 12:09:28;;;;;;;20.55;12.30;;;24.20;60.50;;;;;;5092551;28;20185;-77
2023/03/18 12:12:05;;;;;;;21.83;11.70;;;24.10;60.90;;;;;;5074883;28;20052;-75
2023/03/18 12:14:54;;;;;;;24.27;13.73;;;24.00;61.20;;;;;;5019863;28;20039;-77
2023/03/18 12:17:58;;;;;;;19.65;12.20;;;24.10;61.80;;;;;;5052805;28;20037;-77
2023/03/18 12:20:39;;;;;;;;;;;24.00;62.00;;;;;;4953940;28;20054;-77
2023/03/18 12:23:41;;;;;;;21.33;12.85;;;24.10;62.00;;;;;;4970033;28;19940;-78
2023/03/18 12:26:22;;;;;;;19.42;11.60;;;24.10;61.20;;;;;;4970105;28;20062;-81
2023/03/18 12:29:08;;;;;;;22.55;11.75;;;24.00;60.10;;;;;;4973683;28;20034;-80
2023/03/18 12:31:51;;;;;;;18.13;11.50;;;24.00;59.80;;;;;;4973659;28;20456;-75
2023/03/18 12:34:31;;;;;;;18.70;11.38;;;24.00;59.90;;;;;;4973565;28;20143;-75
2023/03/18 12:37:00;;;;;;;18.92;11.00;;;24.00;59.40;;;;;;4973497;28;20043;-75
2023/03/18 12:39:26;;;;;;;18.63;11.45;;;23.90;61.00;;;;;;4973570;28;20042;-79
2023/03/18 12:42:13;;;;;;;23.17;12.02;;;24.10;61.90;;;;;;4963684;28;20452;-76
2023/03/18 12:44:56;;;;;;;21.60;11.63;;;24.10;60.60;;;;;;4954298;29;20071;-78
2023/03/18 12:47:35;;;;;;;19.70;11.75;;;24.10;60.20;;;;;;4954074;29;20043;-76
2023/03/18 12:50:06;;;;;;;20.27;13.30;;;24.10;60.10;;;;;;4953818;29;20031;-80
2023/03/18 12:52:42;;;;;;;23.17;14.02;;;23.90;59.90;;;;;;4938296;29;20042;-81
2023/03/18 12:55:20;;;;;;;25.08;13.60;;;23.80;52.70;;;;;;4954200;29;20130;-83